sensor_id;sensor_type;location;lat;lon;timestamp;pressure;altitude;pressure_sealevel;temperature;humidity
28456;BME280;15682;56.742;38.866;2022-07-29T00:00:31;99390.0;;;18.2;95.4
28456;BME280;15682;56.742;38.866;2022-07-29T00:02:31;99390.0;;;18.2;95.4
28456;BME280;15682;56.742;38.866;2022-07-29T00:04:34;99390.0;;;18.2;96.5
28456;BME280;15682;56.742;38.866;2022-07-29T00:06:32;99400.0;;;18.2;96.4
28456;BME280;15682;56.742;38.866;2022-07-29T00:08:32;99400.0;;;18.2;95.9
28456;BME280;15682;56.742;38.866;2022-07-29T00:10:33;99400.0;;;18.1;95.9
28456;BME280;15682;56.742;38.866;2022-07-29T00:12:33;99400.0;;;18.2;94.6
28456;BME280;15682;56.742;38.866;2022-07-29T00:14:33;99400.0;;;18.0;95.7
28456;BME280;15682;56.742;38.866;2022-07-29T00:16:34;99400.0;;;18.2;95.3
28456;BME280;15682;56.742;38.866;2022-07-29T00:18:34;99400.0;;;18.0;95.3
28456;BME280;15682;56.742;38.866;2022-07-29T00:20:34;99400.0;;;18.0;95.3
28456;BME280;15682;56.742;38.866;2022-07-29T00:22:37;99400.0;;;18.0;95.3
28456;BME280;15682;56.742;38.866;2022-07-29T00:24:35;99400.0;;;18.2;95.3
28456;BME280;15682;56.742;38.866;2022-07-29T00:26:35;99400.0;;;18.1;95.0
28456;BME280;15682;56.742;38.866;2022-07-29T00:28:36;99400.0;;;18.0;95.0
28456;BME280;15682;56.742;38.866;2022-07-29T00:30:36;99400.0;;;17.8;94.5
28456;BME280;15682;56.742;38.866;2022-07-29T00:32:36;99400.0;;;17.9;94.5
28456;BME280;15682;56.742;38.866;2022-07-29T00:34:37;99400.0;;;17.7;95.9
28456;BME280;15682;56.742;38.866;2022-07-29T00:36:37;99400.0;;;17.9;94.4
28456;BME280;15682;56.742;38.866;2022-07-29T00:38:37;99400.0;;;17.9;94.4
28456;BME280;15682;56.742;38.866;2022-07-29T00:40:38;99400.0;;;17.9;94.4
28456;BME280;15682;56.742;38.866;2022-07-29T00:42:43;99400.0;;;17.8;93.0
28456;BME280;15682;56.742;38.866;2022-07-29T00:44:39;99400.0;;;17.8;93.0
28456;BME280;15682;56.742;38.866;2022-07-29T00:46:39;99410.0;;;17.8;92.6
28456;BME280;15682;56.742;38.866;2022-07-29T00:48:39;99410.0;;;17.7;93.3
28456;BME280;15682;56.742;38.866;2022-07-29T00:50:39;99410.0;;;17.7;93.3
28456;BME280;15682;56.742;38.866;2022-07-29T00:52:41;99410.0;;;17.7;93.3
28456;BME280;15682;56.742;38.866;2022-07-29T00:54:40;99420.0;;;17.6;92.5
28456;BME280;15682;56.742;38.866;2022-07-29T00:56:40;99420.0;;;17.5;91.8
28456;BME280;15682;56.742;38.866;2022-07-29T00:58:41;99420.0;;;17.3;92.3
28456;BME280;15682;56.742;38.866;2022-07-29T01:00:41;99420.0;;;17.3;92.3
28456;BME280;15682;56.742;38.866;2022-07-29T01:02:41;99420.0;;;17.3;91.7
28456;BME280;15682;56.742;38.866;2022-07-29T01:04:42;99420.0;;;17.3;92.3
28456;BME280;15682;56.742;38.866;2022-07-29T01:06:42;99420.0;;;17.3;92.5
28456;BME280;15682;56.742;38.866;2022-07-29T01:08:43;99430.0;;;17.2;91.7
28456;BME280;15682;56.742;38.866;2022-07-29T01:10:44;99430.0;;;17.3;91.7
28456;BME280;15682;56.742;38.866;2022-07-29T01:12:44;99430.0;;;17.2;91.7
28456;BME280;15682;56.742;38.866;2022-07-29T01:14:44;99430.0;;;17.2;91.2
28456;BME280;15682;56.742;38.866;2022-07-29T01:16:48;99430.0;;;17.2;90.8
28456;BME280;15682;56.742;38.866;2022-07-29T01:18:46;99430.0;;;17.3;90.6
28456;BME280;15682;56.742;38.866;2022-07-29T01:21:02;99430.0;;;17.3;90.6
28456;BME280;15682;56.742;38.866;2022-07-29T01:23:02;99430.0;;;17.3;91.3
28456;BME280;15682;56.742;38.866;2022-07-29T01:24:58;99430.0;;;17.3;90.8
28456;BME280;15682;56.742;38.866;2022-07-29T01:26:48;99440.0;;;17.1;90.5
28456;BME280;15682;56.742;38.866;2022-07-29T01:28:52;99440.0;;;17.1;90.8
28456;BME280;15682;56.742;38.866;2022-07-29T01:30:48;99440.0;;;16.9;91.5
28456;BME280;15682;56.742;38.866;2022-07-29T01:32:49;99440.0;;;16.9;92.3
28456;BME280;15682;56.742;38.866;2022-07-29T01:34:50;99440.0;;;17.1;90.4
28456;BME280;15682;56.742;38.866;2022-07-29T01:36:52;99440.0;;;17.1;90.8
28456;BME280;15682;56.742;38.866;2022-07-29T01:38:53;99440.0;;;17.1;90.8
28456;BME280;15682;56.742;38.866;2022-07-29T01:40:52;99440.0;;;17.1;90.8
28456;BME280;15682;56.742;38.866;2022-07-29T01:42:52;99440.0;;;17.1;89.4
28456;BME280;15682;56.742;38.866;2022-07-29T01:44:55;99440.0;;;17.1;89.7
28456;BME280;15682;56.742;38.866;2022-07-29T01:46:54;99440.0;;;17.1;90.2
28456;BME280;15682;56.742;38.866;2022-07-29T01:48:53;99440.0;;;17.0;89.5
28456;BME280;15682;56.742;38.866;2022-07-29T01:50:53;99440.0;;;17.0;89.5
28456;BME280;15682;56.742;38.866;2022-07-29T01:52:56;99440.0;;;17.0;88.8
28456;BME280;15682;56.742;38.866;2022-07-29T01:54:54;99450.0;;;17.0;89.4
28456;BME280;15682;56.742;38.866;2022-07-29T01:56:51;99450.0;;;16.9;88.4
28456;BME280;15682;56.742;38.866;2022-07-29T01:58:52;99450.0;;;17.0;90.3
28456;BME280;15682;56.742;38.866;2022-07-29T02:00:51;99450.0;;;17.1;89.5
28456;BME280;15682;56.742;38.866;2022-07-29T02:02:53;99450.0;;;17.1;89.5
28456;BME280;15682;56.742;38.866;2022-07-29T02:04:53;99450.0;;;17.1;89.5
28456;BME280;15682;56.742;38.866;2022-07-29T02:06:54;99450.0;;;17.1;90.2
28456;BME280;15682;56.742;38.866;2022-07-29T02:08:53;99450.0;;;17.0;90.2
28456;BME280;15682;56.742;38.866;2022-07-29T02:10:55;99450.0;;;17.0;90.2
28456;BME280;15682;56.742;38.866;2022-07-29T02:12:54;99450.0;;;17.0;89.7
28456;BME280;15682;56.742;38.866;2022-07-29T02:14:54;99450.0;;;17.0;89.7
28456;BME280;15682;56.742;38.866;2022-07-29T02:16:56;99450.0;;;17.0;90.0
28456;BME280;15682;56.742;38.866;2022-07-29T02:18:56;99450.0;;;17.1;89.4
28456;BME280;15682;56.742;38.866;2022-07-29T02:20:55;99450.0;;;17.1;89.4
28456;BME280;15682;56.742;38.866;2022-07-29T02:22:55;99450.0;;;17.1;90.4
28456;BME280;15682;56.742;38.866;2022-07-29T02:24:55;99450.0;;;17.0;90.5
28456;BME280;15682;56.742;38.866;2022-07-29T02:26:56;99450.0;;;17.0;89.2
28456;BME280;15682;56.742;38.866;2022-07-29T02:28:57;99450.0;;;16.9;91.2
28456;BME280;15682;56.742;38.866;2022-07-29T02:30:58;99450.0;;;16.9;89.8
28456;BME280;15682;56.742;38.866;2022-07-29T02:32:56;99450.0;;;16.9;89.8
28456;BME280;15682;56.742;38.866;2022-07-29T02:34:58;99450.0;;;16.9;89.8
28456;BME280;15682;56.742;38.866;2022-07-29T02:36:57;99450.0;;;16.9;90.9
28456;BME280;15682;56.742;38.866;2022-07-29T02:38:58;99450.0;;;17.0;90.0
28456;BME280;15682;56.742;38.866;2022-07-29T02:41:00;99450.0;;;17.0;90.0
28456;BME280;15682;56.742;38.866;2022-07-29T02:42:58;99450.0;;;17.0;90.0
28456;BME280;15682;56.742;38.866;2022-07-29T02:44:58;99460.0;;;17.0;90.0
28456;BME280;15682;56.742;38.866;2022-07-29T02:47:03;99460.0;;;17.0;89.6
28456;BME280;15682;56.742;38.866;2022-07-29T02:49:04;99460.0;;;17.0;89.6
28456;BME280;15682;56.742;38.866;2022-07-29T02:51:05;99460.0;;;17.0;89.6
28456;BME280;15682;56.742;38.866;2022-07-29T02:53:04;99460.0;;;17.0;89.6
28456;BME280;15682;56.742;38.866;2022-07-29T02:55:02;99460.0;;;17.0;89.6
28456;BME280;15682;56.742;38.866;2022-07-29T02:57:06;99460.0;;;17.0;90.5
28456;BME280;15682;56.742;38.866;2022-07-29T02:59:04;99460.0;;;16.9;90.0
28456;BME280;15682;56.742;38.866;2022-07-29T03:01:03;99460.0;;;16.9;90.6
28456;BME280;15682;56.742;38.866;2022-07-29T03:03:04;99460.0;;;16.9;89.9
28456;BME280;15682;56.742;38.866;2022-07-29T03:05:02;99460.0;;;16.9;89.9
28456;BME280;15682;56.742;38.866;2022-07-29T03:07:03;99460.0;;;16.9;89.9
28456;BME280;15682;56.742;38.866;2022-07-29T03:09:02;99460.0;;;16.9;89.9
28456;BME280;15682;56.742;38.866;2022-07-29T03:11:03;99460.0;;;16.9;89.2
28456;BME280;15682;56.742;38.866;2022-07-29T03:13:05;99470.0;;;16.9;90.1
28456;BME280;15682;56.742;38.866;2022-07-29T03:15:04;99470.0;;;16.9;89.4
28456;BME280;15682;56.742;38.866;2022-07-29T03:17:04;99470.0;;;17.0;90.4
28456;BME280;15682;56.742;38.866;2022-07-29T03:19:04;99470.0;;;17.0;89.6
28456;BME280;15682;56.742;38.866;2022-07-29T03:21:04;99470.0;;;17.0;89.6
28456;BME280;15682;56.742;38.866;2022-07-29T03:23:05;99470.0;;;16.8;88.7
28456;BME280;15682;56.742;38.866;2022-07-29T03:25:08;99470.0;;;16.8;90.0
28456;BME280;15682;56.742;38.866;2022-07-29T03:27:05;99470.0;;;16.9;90.0
28456;BME280;15682;56.742;38.866;2022-07-29T03:29:05;99470.0;;;17.0;90.0
28456;BME280;15682;56.742;38.866;2022-07-29T03:31:06;99470.0;;;17.0;90.0
28456;BME280;15682;56.742;38.866;2022-07-29T03:33:06;99470.0;;;17.0;88.6
28456;BME280;15682;56.742;38.866;2022-07-29T03:35:08;99470.0;;;17.0;89.2
28456;BME280;15682;56.742;38.866;2022-07-29T03:37:07;99470.0;;;17.0;89.0
28456;BME280;15682;56.742;38.866;2022-07-29T03:39:08;99470.0;;;17.0;88.6
28456;BME280;15682;56.742;38.866;2022-07-29T03:41:10;99480.0;;;17.1;88.6
28456;BME280;15682;56.742;38.866;2022-07-29T03:43:10;99480.0;;;17.1;88.0
28456;BME280;15682;56.742;38.866;2022-07-29T03:45:12;99480.0;;;17.1;88.0
28456;BME280;15682;56.742;38.866;2022-07-29T03:47:09;99480.0;;;17.1;88.8
28456;BME280;15682;56.742;38.866;2022-07-29T03:49:09;99480.0;;;17.1;87.6
28456;BME280;15682;56.742;38.866;2022-07-29T03:51:10;99480.0;;;17.1;87.6
28456;BME280;15682;56.742;38.866;2022-07-29T03:53:09;99480.0;;;17.1;87.6
28456;BME280;15682;56.742;38.866;2022-07-29T03:55:10;99480.0;;;17.1;88.1
28456;BME280;15682;56.742;38.866;2022-07-29T03:57:11;99480.0;;;17.2;87.4
28456;BME280;15682;56.742;38.866;2022-07-29T03:59:11;99480.0;;;17.2;87.4
28456;BME280;15682;56.742;38.866;2022-07-29T04:01:11;99480.0;;;17.2;86.9
28456;BME280;15682;56.742;38.866;2022-07-29T04:03:12;99480.0;;;17.4;86.2
28456;BME280;15682;56.742;38.866;2022-07-29T04:05:12;99480.0;;;17.6;85.1
28456;BME280;15682;56.742;38.866;2022-07-29T04:07:12;99480.0;;;17.6;85.8
28456;BME280;15682;56.742;38.866;2022-07-29T04:09:12;99480.0;;;17.6;85.2
28456;BME280;15682;56.742;38.866;2022-07-29T04:11:13;99490.0;;;17.6;85.2
28456;BME280;15682;56.742;38.866;2022-07-29T04:13:13;99490.0;;;17.6;84.5
28456;BME280;15682;56.742;38.866;2022-07-29T04:15:13;99500.0;;;17.6;85.3
28456;BME280;15682;56.742;38.866;2022-07-29T04:17:14;99500.0;;;17.7;85.5
28456;BME280;15682;56.742;38.866;2022-07-29T04:19:14;99500.0;;;17.7;85.1
28456;BME280;15682;56.742;38.866;2022-07-29T04:21:14;99500.0;;;17.7;84.0
28456;BME280;15682;56.742;38.866;2022-07-29T04:23:15;99500.0;;;17.8;81.2
28456;BME280;15682;56.742;38.866;2022-07-29T04:25:15;99500.0;;;18.0;80.3
28456;BME280;15682;56.742;38.866;2022-07-29T04:27:15;99500.0;;;18.2;76.8
28456;BME280;15682;56.742;38.866;2022-07-29T04:29:16;99500.0;;;18.2;77.6
28456;BME280;15682;56.742;38.866;2022-07-29T04:31:16;99500.0;;;18.1;77.6
28456;BME280;15682;56.742;38.866;2022-07-29T04:33:16;99500.0;;;18.1;77.6
28456;BME280;15682;56.742;38.866;2022-07-29T04:35:17;99500.0;;;18.1;77.6
28456;BME280;15682;56.742;38.866;2022-07-29T04:37:17;99510.0;;;18.0;78.5
28456;BME280;15682;56.742;38.866;2022-07-29T04:39:18;99510.0;;;18.3;77.2
28456;BME280;15682;56.742;38.866;2022-07-29T04:41:18;99510.0;;;18.2;77.2
28456;BME280;15682;56.742;38.866;2022-07-29T04:43:18;99510.0;;;18.6;76.5
28456;BME280;15682;56.742;38.866;2022-07-29T04:45:19;99510.0;;;18.9;75.7
28456;BME280;15682;56.742;38.866;2022-07-29T04:47:19;99510.0;;;19.2;75.0
28456;BME280;15682;56.742;38.866;2022-07-29T04:49:20;99510.0;;;19.0;74.8
28456;BME280;15682;56.742;38.866;2022-07-29T04:51:20;99510.0;;;18.8;75.5
28456;BME280;15682;56.742;38.866;2022-07-29T04:53:21;99510.0;;;18.9;74.8
28456;BME280;15682;56.742;38.866;2022-07-29T04:55:22;99510.0;;;19.1;74.8
28456;BME280;15682;56.742;38.866;2022-07-29T04:57:22;99510.0;;;19.1;74.3
28456;BME280;15682;56.742;38.866;2022-07-29T04:59:22;99510.0;;;19.0;74.5
28456;BME280;15682;56.742;38.866;2022-07-29T05:01:23;99510.0;;;19.0;74.5
28456;BME280;15682;56.742;38.866;2022-07-29T05:03:23;99510.0;;;19.0;74.5
28456;BME280;15682;56.742;38.866;2022-07-29T05:05:24;99510.0;;;19.0;74.5
28456;BME280;15682;56.742;38.866;2022-07-29T05:07:24;99510.0;;;19.2;73.8
28456;BME280;15682;56.742;38.866;2022-07-29T05:09:25;99510.0;;;19.1;73.6
28456;BME280;15682;56.742;38.866;2022-07-29T05:11:25;99510.0;;;19.0;74.3
28456;BME280;15682;56.742;38.866;2022-07-29T05:13:26;99510.0;;;19.0;73.5
28456;BME280;15682;56.742;38.866;2022-07-29T05:15:26;99510.0;;;19.0;74.2
28456;BME280;15682;56.742;38.866;2022-07-29T05:17:27;99510.0;;;19.3;72.9
28456;BME280;15682;56.742;38.866;2022-07-29T05:19:27;99510.0;;;19.3;73.5
28456;BME280;15682;56.742;38.866;2022-07-29T05:21:28;99520.0;;;18.9;74.0
28456;BME280;15682;56.742;38.866;2022-07-29T05:23:29;99520.0;;;18.7;73.4
28456;BME280;15682;56.742;38.866;2022-07-29T05:25:29;99520.0;;;19.0;74.1
28456;BME280;15682;56.742;38.866;2022-07-29T05:27:30;99520.0;;;19.3;72.4
28456;BME280;15682;56.742;38.866;2022-07-29T05:29:30;99520.0;;;19.6;71.6
28456;BME280;15682;56.742;38.866;2022-07-29T05:31:31;99520.0;;;19.5;72.2
28456;BME280;15682;56.742;38.866;2022-07-29T05:33:31;99520.0;;;19.5;72.2
28456;BME280;15682;56.742;38.866;2022-07-29T05:35:32;99520.0;;;19.8;72.2
28456;BME280;15682;56.742;38.866;2022-07-29T05:37:33;99520.0;;;20.1;70.5
28456;BME280;15682;56.742;38.866;2022-07-29T05:39:33;99520.0;;;20.3;70.0
28456;BME280;15682;56.742;38.866;2022-07-29T05:41:33;99520.0;;;20.4;69.0
28456;BME280;15682;56.742;38.866;2022-07-29T05:43:34;99520.0;;;19.8;71.5
28456;BME280;15682;56.742;38.866;2022-07-29T05:45:35;99520.0;;;19.2;73.9
28456;BME280;15682;56.742;38.866;2022-07-29T05:47:35;99520.0;;;18.9;74.5
28456;BME280;15682;56.742;38.866;2022-07-29T05:49:36;99520.0;;;18.8;74.5
28456;BME280;15682;56.742;38.866;2022-07-29T05:51:36;99520.0;;;18.7;75.1
28456;BME280;15682;56.742;38.866;2022-07-29T05:53:37;99520.0;;;18.9;72.9
28456;BME280;15682;56.742;38.866;2022-07-29T05:55:38;99520.0;;;19.3;70.5
28456;BME280;15682;56.742;38.866;2022-07-29T05:57:38;99520.0;;;19.6;69.4
28456;BME280;15682;56.742;38.866;2022-07-29T05:59:39;99520.0;;;19.9;68.7
28456;BME280;15682;56.742;38.866;2022-07-29T06:01:39;99530.0;;;20.0;69.5
28456;BME280;15682;56.742;38.866;2022-07-29T06:03:40;99530.0;;;20.1;69.5
28456;BME280;15682;56.742;38.866;2022-07-29T06:05:40;99530.0;;;19.8;70.4
28456;BME280;15682;56.742;38.866;2022-07-29T06:07:41;99530.0;;;19.3;71.4
28456;BME280;15682;56.742;38.866;2022-07-29T06:09:42;99530.0;;;19.3;71.4
28456;BME280;15682;56.742;38.866;2022-07-29T06:11:42;99530.0;;;19.5;71.4
28456;BME280;15682;56.742;38.866;2022-07-29T06:13:43;99530.0;;;19.4;70.8
28456;BME280;15682;56.742;38.866;2022-07-29T06:15:44;99530.0;;;19.5;70.1
28456;BME280;15682;56.742;38.866;2022-07-29T06:17:44;99530.0;;;19.5;70.1
28456;BME280;15682;56.742;38.866;2022-07-29T06:19:45;99530.0;;;19.5;71.0
28456;BME280;15682;56.742;38.866;2022-07-29T06:21:46;99530.0;;;19.7;71.6
28456;BME280;15682;56.742;38.866;2022-07-29T06:23:46;99530.0;;;19.8;69.6
28456;BME280;15682;56.742;38.866;2022-07-29T06:25:47;99530.0;;;19.8;69.6
28456;BME280;15682;56.742;38.866;2022-07-29T06:27:47;99530.0;;;20.1;68.0
28456;BME280;15682;56.742;38.866;2022-07-29T06:29:48;99530.0;;;20.1;67.9
28456;BME280;15682;56.742;38.866;2022-07-29T06:31:48;99530.0;;;20.7;66.5
28456;BME280;15682;56.742;38.866;2022-07-29T06:33:49;99530.0;;;20.5;66.7
28456;BME280;15682;56.742;38.866;2022-07-29T06:35:50;99530.0;;;20.3;66.7
28456;BME280;15682;56.742;38.866;2022-07-29T06:37:50;99530.0;;;20.3;67.5
28456;BME280;15682;56.742;38.866;2022-07-29T06:39:51;99530.0;;;20.3;67.2
28456;BME280;15682;56.742;38.866;2022-07-29T06:41:52;99530.0;;;20.4;66.8
28456;BME280;15682;56.742;38.866;2022-07-29T06:43:52;99530.0;;;20.5;65.9
28456;BME280;15682;56.742;38.866;2022-07-29T06:45:53;99530.0;;;20.7;66.5
28456;BME280;15682;56.742;38.866;2022-07-29T06:47:54;99530.0;;;20.5;66.0
28456;BME280;15682;56.742;38.866;2022-07-29T06:49:54;99530.0;;;20.5;66.7
28456;BME280;15682;56.742;38.866;2022-07-29T06:51:55;99530.0;;;20.4;66.2
28456;BME280;15682;56.742;38.866;2022-07-29T06:53:56;99530.0;;;20.7;66.6
28456;BME280;15682;56.742;38.866;2022-07-29T06:55:56;99530.0;;;20.7;65.7
28456;BME280;15682;56.742;38.866;2022-07-29T06:57:57;99530.0;;;20.7;63.3
28456;BME280;15682;56.742;38.866;2022-07-29T06:59:58;99530.0;;;20.7;63.8
28456;BME280;15682;56.742;38.866;2022-07-29T07:01:58;99530.0;;;20.8;61.8
28456;BME280;15682;56.742;38.866;2022-07-29T07:03:59;99530.0;;;21.0;60.2
28456;BME280;15682;56.742;38.866;2022-07-29T07:06:00;99540.0;;;21.2;59.5
28456;BME280;15682;56.742;38.866;2022-07-29T07:08:00;99540.0;;;21.1;59.4
28456;BME280;15682;56.742;38.866;2022-07-29T07:10:01;99540.0;;;21.0;60.4
28456;BME280;15682;56.742;38.866;2022-07-29T07:12:02;99540.0;;;20.8;62.1
28456;BME280;15682;56.742;38.866;2022-07-29T07:14:02;99540.0;;;20.8;61.9
28456;BME280;15682;56.742;38.866;2022-07-29T07:16:04;99540.0;;;21.1;61.9
28456;BME280;15682;56.742;38.866;2022-07-29T07:18:04;99540.0;;;21.1;62.6
28456;BME280;15682;56.742;38.866;2022-07-29T07:20:05;99540.0;;;21.1;60.5
28456;BME280;15682;56.742;38.866;2022-07-29T07:22:05;99540.0;;;21.2;58.7
28456;BME280;15682;56.742;38.866;2022-07-29T07:24:06;99540.0;;;21.2;60.0
28456;BME280;15682;56.742;38.866;2022-07-29T07:26:06;99540.0;;;20.9;60.0
28456;BME280;15682;56.742;38.866;2022-07-29T07:28:07;99540.0;;;20.9;59.2
28456;BME280;15682;56.742;38.866;2022-07-29T07:30:08;99540.0;;;21.0;60.5
28456;BME280;15682;56.742;38.866;2022-07-29T07:32:08;99540.0;;;21.1;59.9
28456;BME280;15682;56.742;38.866;2022-07-29T07:34:09;99540.0;;;21.2;59.2
28456;BME280;15682;56.742;38.866;2022-07-29T07:36:09;99540.0;;;21.5;58.1
28456;BME280;15682;56.742;38.866;2022-07-29T07:38:10;99540.0;;;21.6;56.7
28456;BME280;15682;56.742;38.866;2022-07-29T07:40:11;99550.0;;;21.5;58.5
28456;BME280;15682;56.742;38.866;2022-07-29T07:42:12;99550.0;;;21.5;57.8
28456;BME280;15682;56.742;38.866;2022-07-29T07:44:12;99550.0;;;21.8;57.8
28456;BME280;15682;56.742;38.866;2022-07-29T07:46:13;99550.0;;;21.9;57.8
28456;BME280;15682;56.742;38.866;2022-07-29T07:48:13;99550.0;;;21.8;58.5
28456;BME280;15682;56.742;38.866;2022-07-29T07:50:14;99550.0;;;21.9;58.4
28456;BME280;15682;56.742;38.866;2022-07-29T07:52:15;99550.0;;;21.9;56.5
28456;BME280;15682;56.742;38.866;2022-07-29T07:54:15;99550.0;;;21.9;56.5
28456;BME280;15682;56.742;38.866;2022-07-29T07:56:15;99550.0;;;21.9;57.6
28456;BME280;15682;56.742;38.866;2022-07-29T07:58:16;99550.0;;;21.9;56.9
28456;BME280;15682;56.742;38.866;2022-07-29T08:00:17;99550.0;;;22.3;55.3
28456;BME280;15682;56.742;38.866;2022-07-29T08:02:17;99550.0;;;22.4;56.0
28456;BME280;15682;56.742;38.866;2022-07-29T08:04:17;99560.0;;;22.5;55.2
28456;BME280;15682;56.742;38.866;2022-07-29T08:06:18;99560.0;;;22.7;54.3
28456;BME280;15682;56.742;38.866;2022-07-29T08:08:19;99560.0;;;22.7;54.6
28456;BME280;15682;56.742;38.866;2022-07-29T08:10:20;99560.0;;;22.5;54.1
28456;BME280;15682;56.742;38.866;2022-07-29T08:12:20;99560.0;;;22.8;55.6
28456;BME280;15682;56.742;38.866;2022-07-29T08:14:20;99560.0;;;22.3;54.2
28456;BME280;15682;56.742;38.866;2022-07-29T08:16:21;99560.0;;;21.7;54.8
28456;BME280;15682;56.742;38.866;2022-07-29T08:18:21;99560.0;;;21.7;54.9
28456;BME280;15682;56.742;38.866;2022-07-29T08:20:22;99560.0;;;22.4;52.9
28456;BME280;15682;56.742;38.866;2022-07-29T08:22:23;99560.0;;;22.8;51.7
28456;BME280;15682;56.742;38.866;2022-07-29T08:24:23;99560.0;;;23.0;53.0
28456;BME280;15682;56.742;38.866;2022-07-29T08:26:24;99560.0;;;23.1;50.4
28456;BME280;15682;56.742;38.866;2022-07-29T08:28:24;99560.0;;;23.0;50.2
28456;BME280;15682;56.742;38.866;2022-07-29T08:30:25;99560.0;;;23.1;50.7
28456;BME280;15682;56.742;38.866;2022-07-29T08:32:25;99560.0;;;23.1;48.7
28456;BME280;15682;56.742;38.866;2022-07-29T08:34:26;99560.0;;;23.2;49.0
28456;BME280;15682;56.742;38.866;2022-07-29T08:36:26;99560.0;;;23.7;48.6
28456;BME280;15682;56.742;38.866;2022-07-29T08:38:27;99560.0;;;23.8;48.9
28456;BME280;15682;56.742;38.866;2022-07-29T08:40:27;99560.0;;;23.7;50.7
28456;BME280;15682;56.742;38.866;2022-07-29T08:42:28;99560.0;;;23.4;50.7
28456;BME280;15682;56.742;38.866;2022-07-29T08:44:29;99560.0;;;23.7;50.9
28456;BME280;15682;56.742;38.866;2022-07-29T08:46:29;99560.0;;;23.6;49.2
28456;BME280;15682;56.742;38.866;2022-07-29T08:48:31;99560.0;;;23.6;50.2
28456;BME280;15682;56.742;38.866;2022-07-29T08:50:30;99560.0;;;23.5;50.7
28456;BME280;15682;56.742;38.866;2022-07-29T08:52:33;99560.0;;;23.4;51.8
28456;BME280;15682;56.742;38.866;2022-07-29T08:54:32;99560.0;;;23.6;51.8
28456;BME280;15682;56.742;38.866;2022-07-29T08:56:33;99570.0;;;23.8;51.3
28456;BME280;15682;56.742;38.866;2022-07-29T08:58:34;99570.0;;;23.6;53.7
28456;BME280;15682;56.742;38.866;2022-07-29T09:00:34;99570.0;;;23.6;51.7
28456;BME280;15682;56.742;38.866;2022-07-29T09:02:39;99580.0;;;23.2;52.7
28456;BME280;15682;56.742;38.866;2022-07-29T09:04:35;99580.0;;;23.4;52.1
28456;BME280;15682;56.742;38.866;2022-07-29T09:06:38;99580.0;;;23.6;52.8
28456;BME280;15682;56.742;38.866;2022-07-29T09:08:35;99580.0;;;24.0;52.5
28456;BME280;15682;56.742;38.866;2022-07-29T09:10:36;99580.0;;;24.0;49.9
28456;BME280;15682;56.742;38.866;2022-07-29T09:12:37;99580.0;;;23.9;50.4
28456;BME280;15682;56.742;38.866;2022-07-29T09:14:37;99580.0;;;23.9;52.7
28456;BME280;15682;56.742;38.866;2022-07-29T09:16:53;99580.0;;;23.8;52.5
28456;BME280;15682;56.742;38.866;2022-07-29T09:18:39;99580.0;;;23.2;53.9
28456;BME280;15682;56.742;38.866;2022-07-29T09:20:39;99580.0;;;23.2;53.1
28456;BME280;15682;56.742;38.866;2022-07-29T09:22:39;99580.0;;;23.8;54.9
28456;BME280;15682;56.742;38.866;2022-07-29T09:24:42;99580.0;;;24.8;51.9
28456;BME280;15682;56.742;38.866;2022-07-29T09:26:42;99580.0;;;24.8;52.3
28456;BME280;15682;56.742;38.866;2022-07-29T09:28:42;99580.0;;;24.9;51.6
28456;BME280;15682;56.742;38.866;2022-07-29T09:30:50;99580.0;;;24.9;52.4
28456;BME280;15682;56.742;38.866;2022-07-29T09:32:57;99580.0;;;25.5;51.9
28456;BME280;15682;56.742;38.866;2022-07-29T09:34:42;99580.0;;;25.7;49.2
28456;BME280;15682;56.742;38.866;2022-07-29T09:36:45;99580.0;;;25.0;50.2
28456;BME280;15682;56.742;38.866;2022-07-29T09:38:57;99580.0;;;24.4;50.8
28456;BME280;15682;56.742;38.866;2022-07-29T09:40:55;99580.0;;;24.5;50.0
28456;BME280;15682;56.742;38.866;2022-07-29T09:42:46;99580.0;;;25.0;50.6
28456;BME280;15682;56.742;38.866;2022-07-29T09:44:47;99580.0;;;25.0;51.6
28456;BME280;15682;56.742;38.866;2022-07-29T09:47:01;99580.0;;;24.7;51.1
28456;BME280;15682;56.742;38.866;2022-07-29T09:49:06;99580.0;;;24.4;52.0
28456;BME280;15682;56.742;38.866;2022-07-29T09:50:47;99580.0;;;24.1;52.7
28456;BME280;15682;56.742;38.866;2022-07-29T09:52:49;99580.0;;;23.7;53.7
28456;BME280;15682;56.742;38.866;2022-07-29T09:54:48;99580.0;;;23.7;54.1
28456;BME280;15682;56.742;38.866;2022-07-29T09:56:49;99580.0;;;24.0;52.2
28456;BME280;15682;56.742;38.866;2022-07-29T09:59:05;99580.0;;;24.1;50.8
28456;BME280;15682;56.742;38.866;2022-07-29T10:00:51;99580.0;;;24.1;52.1
28456;BME280;15682;56.742;38.866;2022-07-29T10:02:50;99580.0;;;24.1;50.9
28456;BME280;15682;56.742;38.866;2022-07-29T10:04:51;99580.0;;;24.3;49.7
28456;BME280;15682;56.742;38.866;2022-07-29T10:07:00;99580.0;;;24.4;50.1
28456;BME280;15682;56.742;38.866;2022-07-29T10:08:52;99580.0;;;24.2;50.5
28456;BME280;15682;56.742;38.866;2022-07-29T10:11:09;99580.0;;;24.0;51.7
28456;BME280;15682;56.742;38.866;2022-07-29T10:12:55;99580.0;;;24.0;52.4
28456;BME280;15682;56.742;38.866;2022-07-29T10:14:54;99580.0;;;24.0;49.7
28456;BME280;15682;56.742;38.866;2022-07-29T10:16:55;99580.0;;;23.9;51.2
28456;BME280;15682;56.742;38.866;2022-07-29T10:18:54;99580.0;;;23.6;50.6
28456;BME280;15682;56.742;38.866;2022-07-29T10:20:55;99580.0;;;23.8;51.2
28456;BME280;15682;56.742;38.866;2022-07-29T10:22:57;99580.0;;;23.3;53.4
28456;BME280;15682;56.742;38.866;2022-07-29T10:24:56;99580.0;;;23.1;52.4
28456;BME280;15682;56.742;38.866;2022-07-29T10:26:59;99580.0;;;23.3;51.8
28456;BME280;15682;56.742;38.866;2022-07-29T10:28:57;99580.0;;;23.5;50.9
28456;BME280;15682;56.742;38.866;2022-07-29T10:31:02;99580.0;;;23.7;52.1
28456;BME280;15682;56.742;38.866;2022-07-29T10:33:13;99580.0;;;23.8;51.6
28456;BME280;15682;56.742;38.866;2022-07-29T10:35:14;99580.0;;;23.6;52.6
28456;BME280;15682;56.742;38.866;2022-07-29T10:37:07;99580.0;;;23.5;53.2
28456;BME280;15682;56.742;38.866;2022-07-29T10:39:05;99580.0;;;23.5;52.3
28456;BME280;15682;56.742;38.866;2022-07-29T10:41:11;99580.0;;;23.5;53.0
28456;BME280;15682;56.742;38.866;2022-07-29T10:43:09;99580.0;;;23.5;52.8
28456;BME280;15682;56.742;38.866;2022-07-29T10:45:04;99580.0;;;23.7;52.2
28456;BME280;15682;56.742;38.866;2022-07-29T10:47:02;99580.0;;;23.5;53.4
28456;BME280;15682;56.742;38.866;2022-07-29T10:49:12;99580.0;;;23.8;52.5
28456;BME280;15682;56.742;38.866;2022-07-29T10:51:04;99580.0;;;24.1;51.0
28456;BME280;15682;56.742;38.866;2022-07-29T10:53:03;99580.0;;;24.5;49.6
28456;BME280;15682;56.742;38.866;2022-07-29T10:55:05;99580.0;;;24.5;49.7